Mount Vernon, South Dakota
Current Conditions -  °F | °C
As of 4:53 PM on Thursday 23 Oct 2014 (Local Time) from KMHE Reporting Station
Clear Clear  
Wind Chill: 73°   Ceiling: Unl
Heat Index: 73°   Visibility: 10mi
Dew Point: 37°   Wind: 8mph
Humidity: 27%   Direction: 220°SW
Pressure: 29.9"   Gusts: NA
Location:  43.71°N, 98.26°W
Report Text: KMHE 232153Z AUTO 22007KT 10SM CLR 23/03 A2990 RMK AO2 SLP126 T02280028
Loading
Personal Weather Stations






























Interactive Weather Map
Tropical Storm Tracking
New forecast layout! Learn more

10-Day Weather Forecast

Advertisements
Track Severe Weather on mobile